Station Historical Data
Daily Summary for January 1, 2012 Units:  Both    English   Metric
« Previous Day
Next Day »
Daily Weekly Monthly Yearly Custom
  High: Low: Average:
Temperature: 61.9 °F /  16.6 °C 41.1 °F /  5.1 °C 53.2 °F /  11.8 °C
Dew Point: 58.6 °F /  14.8 °C 20.9 °F /  -6.2 °C 40.1 °F /  4.5 °C
Humidity: 92% 43% 62%
Wind Speed: 20.0mph /  32.2km/h - 7.5mph /  12.1km/h
Wind Gust: 29.0mph /  46.7km/h - -
Wind- - WSW
Pressure: 30.32 in /  1026.6 hPa 29.95 in /  1014.1 hPa -
Precipitation: 0.00 in /  0 mm    
Historical Graphs
 
 
Tabular Data for January 1, 2012
Time Temperature Dew Point Pressure Wind Wind Speed Wind Gust Humidity Rainfall Rate (Hourly) Conditions
00:00 52.1 °F /  11.2 °C 38.7 °F /  3.7 °C 30.03in /  1016.8hPa South 3.0mph /  4.8km/h 7.0mph /  11.3km/h 60% 0.00in /  0mm
00:01 52.1 °F /  11.2 °C 38.7 °F /  3.7 °C 30.03in /  1016.8hPa SE 6.0mph /  9.7km/h 6.0mph /  9.7km/h 60% 0.00in /  0mm
00:06 52.3 °F /  11.3 °C 38.4 °F /  3.6 °C 30.03in /  1016.8hPa SE 6.0mph /  9.7km/h 7.0mph /  11.3km/h 59% 0.00in /  0mm
00:11 52.3 °F /  11.3 °C 38.8 °F /  3.8 °C 30.03in /  1016.8hPa SE 5.0mph /  8km/h 7.0mph /  11.3km/h 60% 0.00in /  0mm
00:16 52.2 °F /  11.2 °C 39.2 °F /  4 °C 30.04in /  1017.2hPa SSE 5.0mph /  8km/h 5.0mph /  8km/h 61% 0.00in /  0mm
00:21 52.1 °F /  11.2 °C 39.1 °F /  3.9 °C 30.03in /  1016.8hPa SSE 5.0mph /  8km/h 6.0mph /  9.7km/h 61% 0.00in /  0mm
00:26 52.1 °F /  11.2 °C 38.7 °F /  3.7 °C 30.03in /  1016.8hPa SE 4.0mph /  6.4km/h 8.0mph /  12.9km/h 60% 0.00in /  0mm
00:31 52.0 °F /  11.1 °C 39.0 °F /  3.9 °C 30.02in /  1016.5hPa SE 5.0mph /  8km/h 8.0mph /  12.9km/h 61% 0.00in /  0mm
00:36 52.0 °F /  11.1 °C 39.0 °F /  3.9 °C 30.02in /  1016.5hPa SSE 5.0mph /  8km/h 7.0mph /  11.3km/h 61% 0.00in /  0mm
00:41 52.0 °F /  11.1 °C 39.0 °F /  3.9 °C 30.02in /  1016.5hPa SSE 4.0mph /  6.4km/h 7.0mph /  11.3km/h 61% 0.00in /  0mm
00:46 51.7 °F /  10.9 °C 39.5 °F /  4.2 °C 30.02in /  1016.5hPa SE 4.0mph /  6.4km/h 8.0mph /  12.9km/h 63% 0.00in /  0mm
00:51 51.7 °F /  10.9 °C 39.5 °F /  4.2 °C 30.02in /  1016.5hPa SE 7.0mph /  11.3km/h 9.0mph /  14.5km/h 63% 0.00in /  0mm
00:56 51.9 °F /  11.1 °C 39.7 °F /  4.3 °C 30.02in /  1016.5hPa SE 4.0mph /  6.4km/h 10.0mph /  16.1km/h 63% 0.00in /  0mm
01:01 51.9 °F /  11.1 °C 40.1 °F /  4.5 °C 30.01in /  1016.1hPa SSE 7.0mph /  11.3km/h 9.0mph /  14.5km/h 64% 0.00in /  0mm
01:06 52.0 °F /  11.1 °C 40.2 °F /  4.6 °C 30.01in /  1016.1hPa SE 6.0mph /  9.7km/h 10.0mph /  16.1km/h 64% 0.00in /  0mm
01:11 52.1 °F /  11.2 °C 40.3 °F /  4.6 °C 30.01in /  1016.1hPa SSE 8.0mph /  12.9km/h 8.0mph /  12.9km/h 64% 0.00in /  0mm
01:16 52.5 °F /  11.4 °C 40.7 °F /  4.8 °C 30.01in /  1016.1hPa SSE 7.0mph /  11.3km/h 9.0mph /  14.5km/h 64% 0.00in /  0mm
01:21 52.9 °F /  11.6 °C 41.1 °F /  5.1 °C 30.00in /  1015.8hPa South 4.0mph /  6.4km/h 11.0mph /  17.7km/h 64% 0.00in /  0mm
01:26 53.3 °F /  11.8 °C 41.5 °F /  5.3 °C 30.01in /  1016.1hPa SE 8.0mph /  12.9km/h 11.0mph /  17.7km/h 64% 0.00in /  0mm
01:31 53.7 °F /  12.1 °C 41.8 °F /  5.4 °C 30.00in /  1015.8hPa South 7.0mph /  11.3km/h 11.0mph /  17.7km/h 64% 0.00in /  0mm
01:36 53.8 °F /  12.1 °C 41.9 °F /  5.5 °C 30.00in /  1015.8hPa SSW 6.0mph /  9.7km/h 13.0mph /  20.9km/h 64% 0.00in /  0mm
01:41 53.9 °F /  12.2 °C 42.0 °F /  5.6 °C 30.00in /  1015.8hPa SSE 8.0mph /  12.9km/h 11.0mph /  17.7km/h 64% 0.00in /  0mm
01:46 54.1 °F /  12.3 °C 42.6 °F /  5.9 °C 30.00in /  1015.8hPa SSE 9.0mph /  14.5km/h 11.0mph /  17.7km/h 65% 0.00in /  0mm
01:48 54.1 °F /  12.3 °C 42.6 °F /  5.9 °C 30.00in /  1015.8hPa SSE 9.0mph /  14.5km/h 11.0mph /  17.7km/h 65% 0.00in /  0mm
01:53 54.4 °F /  12.4 °C 43.3 °F /  6.3 °C 29.99in /  1015.5hPa SSE 6.0mph /  9.7km/h 12.0mph /  19.3km/h 66% 0.00in /  0mm
01:58 54.6 °F /  12.6 °C 43.1 °F /  6.2 °C 29.99in /  1015.5hPa SSE 9.0mph /  14.5km/h 12.0mph /  19.3km/h 65% 0.00in /  0mm
02:03 54.8 °F /  12.7 °C 43.7 °F /  6.5 °C 29.99in /  1015.5hPa SE 10.0mph /  16.1km/h 11.0mph /  17.7km/h 66% 0.00in /  0mm
02:08 55.1 °F /  12.8 °C 44.3 °F /  6.8 °C 29.99in /  1015.5hPa South 7.0mph /  11.3km/h 13.0mph /  20.9km/h 67% 0.00in /  0mm
02:13 55.3 °F /  12.9 °C 44.5 °F /  6.9 °C 29.99in /  1015.5hPa SW 5.0mph /  8km/h 11.0mph /  17.7km/h 67% 0.00in /  0mm
02:18 55.5 °F /  13.1 °C 44.7 °F /  7.1 °C 29.99in /  1015.5hPa SSE 13.0mph /  20.9km/h 13.0mph /  20.9km/h 67% 0.00in /  0mm
02:23 55.8 °F /  13.2 °C 45.4 °F /  7.4 °C 30.00in /  1015.8hPa SSE 6.0mph /  9.7km/h 8.0mph /  12.9km/h 68% 0.00in /  0mm
02:28 56.0 °F /  13.3 °C 45.6 °F /  7.6 °C 30.00in /  1015.8hPa SW 8.0mph /  12.9km/h 11.0mph /  17.7km/h 68% 0.00in /  0mm
02:33 56.1 °F /  13.4 °C 46.1 °F /  7.8 °C 29.99in /  1015.5hPa South 7.0mph /  11.3km/h 10.0mph /  16.1km/h 69% 0.00in /  0mm
02:38 56.2 °F /  13.4 °C 46.6 °F /  8.1 °C 29.99in /  1015.5hPa SSE 13.0mph /  20.9km/h 13.0mph /  20.9km/h 70% 0.00in /  0mm
02:43 56.2 °F /  13.4 °C 46.9 °F /  8.3 °C 29.99in /  1015.5hPa SSW 12.0mph /  19.3km/h 13.0mph /  20.9km/h 71% 0.00in /  0mm
02:48 56.3 °F /  13.5 °C 47.0 °F /  8.3 °C 29.99in /  1015.5hPa SSE 9.0mph /  14.5km/h 11.0mph /  17.7km/h 71% 0.00in /  0mm
02:53 56.5 °F /  13.6 °C 47.2 °F /  8.4 °C 30.00in /  1015.8hPa SSE 10.0mph /  16.1km/h 10.0mph /  16.1km/h 71% 0.00in /  0mm
02:58 56.7 °F /  13.7 °C 47.4 °F /  8.6 °C 29.99in /  1015.5hPa South 9.0mph /  14.5km/h 10.0mph /  16.1km/h 71% 0.00in /  0mm
03:03 56.7 °F /  13.7 °C 47.4 °F /  8.6 °C 30.00in /  1015.8hPa SSE 6.0mph /  9.7km/h 10.0mph /  16.1km/h 71% 0.00in /  0mm
03:08 56.6 °F /  13.7 °C 47.7 °F /  8.7 °C 30.00in /  1015.8hPa South 6.0mph /  9.7km/h 6.0mph /  9.7km/h 72% 0.00in /  0mm
03:13 56.5 °F /  13.6 °C 47.6 °F /  8.7 °C 29.99in /  1015.5hPa SE 5.0mph /  8km/h 11.0mph /  17.7km/h 72% 0.00in /  0mm
03:18 56.4 °F /  13.6 °C 47.9 °F /  8.8 °C 29.99in /  1015.5hPa SSE 8.0mph /  12.9km/h 11.0mph /  17.7km/h 73% 0.00in /  0mm
03:23 56.2 °F /  13.4 °C 48.0 °F /  8.9 °C 29.99in /  1015.5hPa South 3.0mph /  4.8km/h 11.0mph /  17.7km/h 74% 0.00in /  0mm
03:28 56.1 °F /  13.4 °C 48.3 °F /  9.1 °C 29.99in /  1015.5hPa SSE 9.0mph /  14.5km/h 11.0mph /  17.7km/h 75% 0.00in /  0mm
03:33 56.0 °F /  13.3 °C 48.2 °F /  9 °C 29.99in /  1015.5hPa South 6.0mph /  9.7km/h 9.0mph /  14.5km/h 75% 0.00in /  0mm
03:38 56.1 °F /  13.4 °C 48.7 °F /  9.3 °C 29.99in /  1015.5hPa SSW 5.0mph /  8km/h 8.0mph /  12.9km/h 76% 0.00in /  0mm
03:43 56.1 °F /  13.4 °C 48.7 °F /  9.3 °C 29.98in /  1015.1hPa SSE 4.0mph /  6.4km/h 9.0mph /  14.5km/h 76% 0.00in /  0mm
03:48 56.1 °F /  13.4 °C 49.0 °F /  9.4 °C 29.99in /  1015.5hPa SSE 7.0mph /  11.3km/h 8.0mph /  12.9km/h 77% 0.00in /  0mm
03:53 56.1 °F /  13.4 °C 49.3 °F /  9.6 °C 29.99in /  1015.5hPa South 4.0mph /  6.4km/h 8.0mph /  12.9km/h 78% 0.00in /  0mm
03:58 56.2 °F /  13.4 °C 49.4 °F /  9.7 °C 29.98in /  1015.1hPa South 4.0mph /  6.4km/h 6.0mph /  9.7km/h 78% 0.00in /  0mm
04:03 56.3 °F /  13.5 °C 49.9 °F /  9.9 °C 29.98in /  1015.1hPa South 7.0mph /  11.3km/h 8.0mph /  12.9km/h 79% 0.00in /  0mm
04:08 56.4 °F /  13.6 °C 50.3 °F /  10.2 °C 29.98in /  1015.1hPa SE 5.0mph /  8km/h 8.0mph /  12.9km/h 80% 0.00in /  0mm
04:13 56.6 °F /  13.7 °C 50.8 °F /  10.4 °C 29.98in /  1015.1hPa SSE 5.0mph /  8km/h 8.0mph /  12.9km/h 81% 0.00in /  0mm
04:19 56.8 °F /  13.8 °C 51.0 °F /  10.6 °C 29.98in /  1015.1hPa SSE 9.0mph /  14.5km/h 9.0mph /  14.5km/h 81% 0.00in /  0mm
04:24 56.9 °F /  13.8 °C 51.5 °F /  10.8 °C 29.98in /  1015.1hPa SSW 5.0mph /  8km/h 6.0mph /  9.7km/h 82% 0.00in /  0mm
04:29 57.0 °F /  13.9 °C 51.6 °F /  10.9 °C 29.98in /  1015.1hPa SSW 7.0mph /  11.3km/h 8.0mph /  12.9km/h 82% 0.00in /  0mm
04:34 57.3 °F /  14.1 °C 52.2 °F /  11.2 °C 29.98in /  1015.1hPa WSW 6.0mph /  9.7km/h 7.0mph /  11.3km/h 83% 0.00in /  0mm
04:39 57.3 °F /  14.1 °C 52.2 °F /  11.2 °C 29.98in /  1015.1hPa SSE 5.0mph /  8km/h 5.0mph /  8km/h 83% 0.00in /  0mm
04:44 57.3 °F /  14.1 °C 52.5 °F /  11.4 °C 29.97in /  1014.8hPa South 4.0mph /  6.4km/h 7.0mph /  11.3km/h 84% 0.00in /  0mm
04:49 57.5 °F /  14.2 °C 53.0 °F /  11.7 °C 29.97in /  1014.8hPa SSE 3.0mph /  4.8km/h 9.0mph /  14.5km/h 85% 0.00in /  0mm
04:54 57.4 °F /  14.1 °C 52.9 °F /  11.6 °C 29.97in /  1014.8hPa SSE 5.0mph /  8km/h 6.0mph /  9.7km/h 85% 0.00in /  0mm
04:59 57.5 °F /  14.2 °C 53.3 °F /  11.8 °C 29.97in /  1014.8hPa SSW 4.0mph /  6.4km/h 6.0mph /  9.7km/h 86% 0.00in /  0mm
05:04 57.9 °F /  14.4 °C 54.1 °F /  12.3 °C 29.97in /  1014.8hPa SSE 7.0mph /  11.3km/h 8.0mph /  12.9km/h 87% 0.00in /  0mm
05:09 58.3 °F /  14.6 °C 54.5 °F /  12.5 °C 29.97in /  1014.8hPa SW 7.0mph /  11.3km/h 11.0mph /  17.7km/h 87% 0.00in /  0mm
05:14 58.7 °F /  14.8 °C 54.8 °F /  12.7 °C 29.97in /  1014.8hPa SW 3.0mph /  4.8km/h 11.0mph /  17.7km/h 87% 0.00in /  0mm
05:19 58.8 °F /  14.9 °C 55.0 °F /  12.8 °C 29.97in /  1014.8hPa SW 4.0mph /  6.4km/h 11.0mph /  17.7km/h 87% 0.00in /  0mm
05:24 58.8 °F /  14.9 °C 55.0 °F /  12.8 °C 29.97in /  1014.8hPa SSW 7.0mph /  11.3km/h 10.0mph /  16.1km/h 87% 0.00in /  0mm
05:29 58.9 °F /  14.9 °C 55.0 °F /  12.8 °C 29.97in /  1014.8hPa SW 5.0mph /  8km/h 10.0mph /  16.1km/h 87% 0.00in /  0mm
05:34 58.7 °F /  14.8 °C 55.2 °F /  12.9 °C 29.97in /  1014.8hPa SSW 6.0mph /  9.7km/h 7.0mph /  11.3km/h 88% 0.00in /  0mm
05:39 58.8 °F /  14.9 °C 55.3 °F /  12.9 °C 29.97in /  1014.8hPa SSE 3.0mph /  4.8km/h 7.0mph /  11.3km/h 88% 0.00in /  0mm
05:44 59.0 °F /  15 °C 55.5 °F /  13.1 °C 29.97in /  1014.8hPa SSW 6.0mph /  9.7km/h 9.0mph /  14.5km/h 88% 0.00in /  0mm
05:49 59.1 °F /  15.1 °C 55.5 °F /  13.1 °C 29.96in /  1014.4hPa SW 4.0mph /  6.4km/h 8.0mph /  12.9km/h 88% 0.00in /  0mm
05:54 59.0 °F /  15 °C 55.5 °F /  13.1 °C 29.96in /  1014.4hPa South 7.0mph /  11.3km/h 8.0mph /  12.9km/h 88% 0.00in /  0mm
05:59 58.8 °F /  14.9 °C 55.6 °F /  13.1 °C 29.96in /  1014.4hPa SSW 4.0mph /  6.4km/h 9.0mph /  14.5km/h 89% 0.00in /  0mm
06:04 58.8 °F /  14.9 °C 55.6 °F /  13.1 °C 29.96in /  1014.4hPa South 7.0mph /  11.3km/h 9.0mph /  14.5km/h 89% 0.00in /  0mm
06:09 58.7 °F /  14.8 °C 55.8 °F /  13.2 °C 29.96in /  1014.4hPa SSW 6.0mph /  9.7km/h 9.0mph /  14.5km/h 90% 0.00in /  0mm
06:14 58.7 °F /  14.8 °C 55.8 °F /  13.2 °C 29.96in /  1014.4hPa SSW 4.0mph /  6.4km/h 8.0mph /  12.9km/h 90% 0.00in /  0mm
06:19 58.6 °F /  14.8 °C 55.7 °F /  13.2 °C 29.96in /  1014.4hPa South 6.0mph /  9.7km/h 10.0mph /  16.1km/h 90% 0.00in /  0mm
06:24 58.5 °F /  14.7 °C 55.9 °F /  13.3 °C 29.96in /  1014.4hPa South 6.0mph /  9.7km/h 10.0mph /  16.1km/h 91% 0.00in /  0mm
06:29 58.4 °F /  14.7 °C 55.8 °F /  13.2 °C 29.95in /  1014.1hPa ESE 7.0mph /  11.3km/h 7.0mph /  11.3km/h 91% 0.00in /  0mm
06:34 58.3 °F /  14.6 °C 55.7 °F /  13.2 °C 29.95in /  1014.1hPa SSE 8.0mph /  12.9km/h 9.0mph /  14.5km/h 91% 0.00in /  0mm
06:39 58.2 °F /  14.6 °C 55.6 °F /  13.1 °C 29.96in /  1014.4hPa South 6.0mph /  9.7km/h 10.0mph /  16.1km/h 91% 0.00in /  0mm
06:44 58.3 °F /  14.6 °C 56.0 °F /  13.3 °C 29.96in /  1014.4hPa South 7.0mph /  11.3km/h 8.0mph /  12.9km/h 92% 0.00in /  0mm
06:49 58.4 °F /  14.7 °C 56.1 °F /  13.4 °C 29.95in /  1014.1hPa South 7.0mph /  11.3km/h 7.0mph /  11.3km/h 92% 0.00in /  0mm
06:54 58.6 °F /  14.8 °C 56.3 °F /  13.5 °C 29.95in /  1014.1hPa SE 5.0mph /  8km/h 9.0mph /  14.5km/h 92% 0.00in /  0mm
06:59 58.7 °F /  14.8 °C 56.4 °F /  13.6 °C 29.95in /  1014.1hPa South 4.0mph /  6.4km/h 11.0mph /  17.7km/h 92% 0.00in /  0mm
07:04 58.7 °F /  14.8 °C 56.4 °F /  13.6 °C 29.95in /  1014.1hPa SSE 5.0mph /  8km/h 8.0mph /  12.9km/h 92% 0.00in /  0mm
07:09 58.8 °F /  14.9 °C 56.5 °F /  13.6 °C 29.95in /  1014.1hPa SSE 5.0mph /  8km/h 9.0mph /  14.5km/h 92% 0.00in /  0mm
07:14 58.9 °F /  14.9 °C 56.6 °F /  13.7 °C 29.95in /  1014.1hPa SSE 8.0mph /  12.9km/h 9.0mph /  14.5km/h 92% 0.00in /  0mm
07:20 59.1 °F /  15.1 °C 56.8 °F /  13.8 °C 29.96in /  1014.4hPa SW 7.0mph /  11.3km/h 9.0mph /  14.5km/h 92% 0.00in /  0mm
07:25 59.1 °F /  15.1 °C 56.5 °F /  13.6 °C 29.95in /  1014.1hPa SSW 4.0mph /  6.4km/h 7.0mph /  11.3km/h 91% 0.00in /  0mm
07:30 59.2 °F /  15.1 °C 56.9 °F /  13.8 °C 29.95in /  1014.1hPa South 8.0mph /  12.9km/h 8.0mph /  12.9km/h 92% 0.00in /  0mm
07:35 59.6 °F /  15.3 °C 57.3 °F /  14.1 °C 29.96in /  1014.4hPa SSW 3.0mph /  4.8km/h 13.0mph /  20.9km/h 92% 0.00in /  0mm
07:40 59.6 °F /  15.3 °C 57.0 °F /  13.9 °C 29.96in /  1014.4hPa SW 8.0mph /  12.9km/h 10.0mph /  16.1km/h 91% 0.00in /  0mm
07:45 60.0 °F /  15.6 °C 57.7 °F /  14.3 °C 29.96in /  1014.4hPa WSW 10.0mph /  16.1km/h 11.0mph /  17.7km/h 92% 0.00in /  0mm
07:50 60.6 °F /  15.9 °C 58.0 °F /  14.4 °C 29.96in /  1014.4hPa SW 14.0mph /  22.5km/h 16.0mph /  25.7km/h 91% 0.00in /  0mm
07:55 61.4 °F /  16.3 °C 58.5 °F /  14.7 °C 29.97in /  1014.8hPa SW 20.0mph /  32.2km/h 20.0mph /  32.2km/h 90% 0.00in /  0mm
08:00 61.9 °F /  16.6 °C 58.6 °F /  14.8 °C 29.97in /  1014.8hPa West 7.0mph /  11.3km/h 15.0mph /  24.1km/h 89% 0.00in /  0mm
08:05 61.9 °F /  16.6 °C 58.0 °F /  14.4 °C 29.98in /  1015.1hPa WSW 15.0mph /  24.1km/h 15.0mph /  24.1km/h 87% 0.00in /  0mm
08:10 61.8 °F /  16.6 °C 57.2 °F /  14 °C 29.98in /  1015.1hPa West 17.0mph /  27.4km/h 22.0mph /  35.4km/h 85% 0.00in /  0mm
08:15 61.8 °F /  16.6 °C 56.6 °F /  13.7 °C 29.99in /  1015.5hPa West 12.0mph /  19.3km/h 14.0mph /  22.5km/h 83% 0.00in /  0mm
08:20 61.7 °F /  16.5 °C 56.2 °F /  13.4 °C 29.99in /  1015.5hPa WSW 16.0mph /  25.7km/h 20.0mph /  32.2km/h 82% 0.00in /  0mm
08:25 61.7 °F /  16.5 °C 55.8 °F /  13.2 °C 30.00in /  1015.8hPa WSW 14.0mph /  22.5km/h 17.0mph /  27.4km/h 81% 0.00in /  0mm
08:30 61.5 °F /  16.4 °C 55.3 °F /  12.9 °C 30.00in /  1015.8hPa West 8.0mph /  12.9km/h 16.0mph /  25.7km/h 80% 0.00in /  0mm
08:35 61.2 °F /  16.2 °C 55.0 °F /  12.8 °C 30.00in /  1015.8hPa WSW 11.0mph /  17.7km/h 16.0mph /  25.7km/h 80% 0.00in /  0mm
08:40 60.8 °F /  16 °C 54.9 °F /  12.7 °C 30.00in /  1015.8hPa West 9.0mph /  14.5km/h 9.0mph /  14.5km/h 81% 0.00in /  0mm
08:45 60.7 °F /  15.9 °C 54.8 °F /  12.7 °C 30.01in /  1016.1hPa West 8.0mph /  12.9km/h 13.0mph /  20.9km/h 81% 0.00in /  0mm
08:50 60.7 °F /  15.9 °C 54.8 °F /  12.7 °C 30.01in /  1016.1hPa WNW 11.0mph /  17.7km/h 18.0mph /  29km/h 81% 0.00in /  0mm
08:55 60.6 °F /  15.9 °C 54.8 °F /  12.7 °C 30.02in /  1016.5hPa WSW 16.0mph /  25.7km/h 22.0mph /  35.4km/h 81% 0.00in /  0mm
09:00 60.5 °F /  15.8 °C 54.7 °F /  12.6 °C 30.02in /  1016.5hPa West 10.0mph /  16.1km/h 14.0mph /  22.5km/h 81% 0.00in /  0mm
09:05 60.2 °F /  15.7 °C 54.4 °F /  12.4 °C 30.03in /  1016.8hPa WSW 8.0mph /  12.9km/h 20.0mph /  32.2km/h 81% 0.00in /  0mm
09:10 59.9 °F /  15.5 °C 53.4 °F /  11.9 °C 30.03in /  1016.8hPa WSW 14.0mph /  22.5km/h 23.0mph /  37km/h 79% 0.00in /  0mm
09:15 59.9 °F /  15.5 °C 52.3 °F /  11.3 °C 30.04in /  1017.2hPa West 12.0mph /  19.3km/h 20.0mph /  32.2km/h 76% 0.00in /  0mm
09:20 59.7 °F /  15.4 °C 52.1 °F /  11.2 °C 30.04in /  1017.2hPa West 10.0mph /  16.1km/h 21.0mph /  33.8km/h 76% 0.00in /  0mm
09:25 59.4 °F /  15.2 °C 51.5 °F /  10.8 °C 30.05in /  1017.5hPa West 11.0mph /  17.7km/h 21.0mph /  33.8km/h 75% 0.00in /  0mm
09:30 59.1 °F /  15.1 °C 50.8 °F /  10.4 °C 30.05in /  1017.5hPa West 12.0mph /  19.3km/h 20.0mph /  32.2km/h 74% 0.00in /  0mm
09:35 58.7 °F /  14.8 °C 49.3 °F /  9.6 °C 30.06in /  1017.8hPa WNW 10.0mph /  16.1km/h 29.0mph /  46.7km/h 71% 0.00in /  0mm
09:40 58.3 °F /  14.6 °C 48.2 °F /  9 °C 30.07in /  1018.2hPa West 8.0mph /  12.9km/h 18.0mph /  29km/h 69% 0.00in /  0mm
09:45 58.3 °F /  14.6 °C 47.0 °F /  8.3 °C 30.07in /  1018.2hPa West 12.0mph /  19.3km/h 17.0mph /  27.4km/h 66% 0.00in /  0mm
09:50 58.5 °F /  14.7 °C 46.4 °F /  8 °C 30.08in /  1018.5hPa West 15.0mph /  24.1km/h 19.0mph /  30.6km/h 64% 0.00in /  0mm
09:55 58.4 °F /  14.7 °C 44.1 °F /  6.7 °C 30.08in /  1018.5hPa West 13.0mph /  20.9km/h 23.0mph /  37km/h 59% 0.00in /  0mm
10:00 58.2 °F /  14.6 °C 44.4 °F /  6.9 °C 30.08in /  1018.5hPa WNW 13.0mph /  20.9km/h 21.0mph /  33.8km/h 60% 0.00in /  0mm
10:05 58.3 °F /  14.6 °C 44.5 °F /  6.9 °C 30.09in /  1018.8hPa SSE 5.0mph /  8km/h 16.0mph /  25.7km/h 60% 0.00in /  0mm
10:10 58.0 °F /  14.4 °C 42.4 °F /  5.8 °C 30.10in /  1019.2hPa WNW 17.0mph /  27.4km/h 25.0mph /  40.2km/h 56% 0.00in /  0mm
10:15 57.5 °F /  14.2 °C 39.0 °F /  3.9 °C 30.09in /  1018.8hPa WSW 13.0mph /  20.9km/h 19.0mph /  30.6km/h 50% 0.00in /  0mm
10:20 57.1 °F /  13.9 °C 38.1 °F /  3.4 °C 30.10in /  1019.2hPa WNW 12.0mph /  19.3km/h 23.0mph /  37km/h 49% 0.00in /  0mm
10:25 57.0 °F /  13.9 °C 39.1 °F /  3.9 °C 30.10in /  1019.2hPa West 7.0mph /  11.3km/h 20.0mph /  32.2km/h 51% 0.00in /  0mm
10:31 57.1 °F /  13.9 °C 39.7 °F /  4.3 °C 30.11in /  1019.5hPa SSW 6.0mph /  9.7km/h 17.0mph /  27.4km/h 52% 0.00in /  0mm
10:35 57.1 °F /  13.9 °C 39.2 °F /  4 °C 30.11in /  1019.5hPa WNW 12.0mph /  19.3km/h 17.0mph /  27.4km/h 51% 0.00in /  0mm
10:36 57.1 °F /  13.9 °C 39.2 °F /  4 °C 30.11in /  1019.5hPa West 9.0mph /  14.5km/h 17.0mph /  27.4km/h 51% 0.00in /  0mm
10:41 56.7 °F /  13.7 °C 39.3 °F /  4.1 °C 30.11in /  1019.5hPa WNW 10.0mph /  16.1km/h 16.0mph /  25.7km/h 52% 0.00in /  0mm
10:46 56.8 °F /  13.8 °C 39.9 °F /  4.4 °C 30.12in /  1019.9hPa WNW 18.0mph /  29km/h 18.0mph /  29km/h 53% 0.00in /  0mm
10:51 56.2 °F /  13.4 °C 38.3 °F /  3.5 °C 30.12in /  1019.9hPa WNW 11.0mph /  17.7km/h 24.0mph /  38.6km/h 51% 0.00in /  0mm
10:56 55.8 °F /  13.2 °C 38.0 °F /  3.3 °C 30.12in /  1019.9hPa NW 16.0mph /  25.7km/h 20.0mph /  32.2km/h 51% 0.00in /  0mm
11:01 55.4 °F /  13 °C 36.6 °F /  2.6 °C 30.12in /  1019.9hPa WNW 13.0mph /  20.9km/h 22.0mph /  35.4km/h 49% 0.00in /  0mm
11:06 55.2 °F /  12.9 °C 36.9 °F /  2.7 °C 30.13in /  1020.2hPa West 8.0mph /  12.9km/h 22.0mph /  35.4km/h 50% 0.00in /  0mm
11:11 55.3 °F /  12.9 °C 37.5 °F /  3.1 °C 30.13in /  1020.2hPa West 8.0mph /  12.9km/h 17.0mph /  27.4km/h 51% 0.00in /  0mm
11:16 55.5 °F /  13.1 °C 37.2 °F /  2.9 °C 30.13in /  1020.2hPa WNW 3.0mph /  4.8km/h 18.0mph /  29km/h 50% 0.00in /  0mm
11:21 55.3 °F /  12.9 °C 37.0 °F /  2.8 °C 30.13in /  1020.2hPa West 14.0mph /  22.5km/h 19.0mph /  30.6km/h 50% 0.00in /  0mm
11:26 55.4 °F /  13 °C 37.6 °F /  3.1 °C 30.13in /  1020.2hPa West 8.0mph /  12.9km/h 15.0mph /  24.1km/h 51% 0.00in /  0mm
11:31 55.4 °F /  13 °C 36.6 °F /  2.6 °C 30.13in /  1020.2hPa WNW 17.0mph /  27.4km/h 18.0mph /  29km/h 49% 0.00in /  0mm
11:36 55.4 °F /  13 °C 37.1 °F /  2.8 °C 30.14in /  1020.5hPa WNW 9.0mph /  14.5km/h 15.0mph /  24.1km/h 50% 0.00in /  0mm
11:41 55.2 °F /  12.9 °C 36.9 °F /  2.7 °C 30.14in /  1020.5hPa West 11.0mph /  17.7km/h 17.0mph /  27.4km/h 50% 0.00in /  0mm
11:46 55.4 °F /  13 °C 38.1 °F /  3.4 °C 30.14in /  1020.5hPa WNW 9.0mph /  14.5km/h 15.0mph /  24.1km/h 52% 0.00in /  0mm
11:51 55.1 °F /  12.8 °C 37.8 °F /  3.2 °C 30.14in /  1020.5hPa WNW 12.0mph /  19.3km/h 19.0mph /  30.6km/h 52% 0.00in /  0mm
11:56 55.1 °F /  12.8 °C 37.8 °F /  3.2 °C 30.14in /  1020.5hPa WNW 11.0mph /  17.7km/h 18.0mph /  29km/h 52% 0.00in /  0mm
12:01 55.3 °F /  12.9 °C 38.5 °F /  3.6 °C 30.14in /  1020.5hPa West 13.0mph /  20.9km/h 16.0mph /  25.7km/h 53% 0.00in /  0mm
12:06 55.5 °F /  13.1 °C 38.2 °F /  3.4 °C 30.14in /  1020.5hPa WNW 14.0mph /  22.5km/h 17.0mph /  27.4km/h 52% 0.00in /  0mm
12:11 54.9 °F /  12.7 °C 37.1 °F /  2.8 °C 30.14in /  1020.5hPa WNW 9.0mph /  14.5km/h 19.0mph /  30.6km/h 51% 0.00in /  0mm
12:16 54.9 °F /  12.7 °C 37.6 °F /  3.1 °C 30.14in /  1020.5hPa WNW 15.0mph /  24.1km/h 16.0mph /  25.7km/h 52% 0.00in /  0mm
12:21 55.4 °F /  13 °C 38.1 °F /  3.4 °C 30.14in /  1020.5hPa WNW 11.0mph /  17.7km/h 15.0mph /  24.1km/h 52% 0.00in /  0mm
12:26 55.7 °F /  13.2 °C 38.4 °F /  3.6 °C 30.14in /  1020.5hPa WNW 9.0mph /  14.5km/h 11.0mph /  17.7km/h 52% 0.00in /  0mm
12:31 55.5 °F /  13.1 °C 38.7 °F /  3.7 °C 30.14in /  1020.5hPa WNW 5.0mph /  8km/h 12.0mph /  19.3km/h 53% 0.00in /  0mm
12:37 55.7 °F /  13.2 °C 38.4 °F /  3.6 °C 30.14in /  1020.5hPa WNW 14.0mph /  22.5km/h 15.0mph /  24.1km/h 52% 0.00in /  0mm
12:42 55.8 °F /  13.2 °C 38.5 °F /  3.6 °C 30.13in /  1020.2hPa West 12.0mph /  19.3km/h 16.0mph /  25.7km/h 52% 0.00in /  0mm
12:47 55.4 °F /  13 °C 37.6 °F /  3.1 °C 30.12in /  1019.9hPa WNW 7.0mph /  11.3km/h 17.0mph /  27.4km/h 51% 0.00in /  0mm
12:52 55.7 °F /  13.2 °C 38.8 °F /  3.8 °C 30.12in /  1019.9hPa WNW 7.0mph /  11.3km/h 14.0mph /  22.5km/h 53% 0.00in /  0mm
12:57 55.4 °F /  13 °C 38.1 °F /  3.4 °C 30.13in /  1020.2hPa West 12.0mph /  19.3km/h 19.0mph /  30.6km/h 52% 0.00in /  0mm
13:02 54.9 °F /  12.7 °C 38.1 °F /  3.4 °C 30.12in /  1019.9hPa West 10.0mph /  16.1km/h 20.0mph /  32.2km/h 53% 0.00in /  0mm
13:07 54.8 °F /  12.7 °C 38.5 °F /  3.6 °C 30.12in /  1019.9hPa West 9.0mph /  14.5km/h 17.0mph /  27.4km/h 54% 0.00in /  0mm
13:12 55.1 °F /  12.8 °C 37.8 °F /  3.2 °C 30.12in /  1019.9hPa WNW 9.0mph /  14.5km/h 17.0mph /  27.4km/h 52% 0.00in /  0mm
13:17 55.3 °F /  12.9 °C 38.0 °F /  3.3 °C 30.12in /  1019.9hPa West 15.0mph /  24.1km/h 15.0mph /  24.1km/h 52% 0.00in /  0mm
13:22 55.1 °F /  12.8 °C 37.8 °F /  3.2 °C 30.12in /  1019.9hPa WNW 8.0mph /  12.9km/h 13.0mph /  20.9km/h 52% 0.00in /  0mm
13:27 55.5 °F /  13.1 °C 39.1 °F /  3.9 °C 30.12in /  1019.9hPa WNW 8.0mph /  12.9km/h 12.0mph /  19.3km/h 54% 0.00in /  0mm
13:32 55.5 °F /  13.1 °C 38.2 °F /  3.4 °C 30.12in /  1019.9hPa WNW 9.0mph /  14.5km/h 13.0mph /  20.9km/h 52% 0.00in /  0mm
13:37 55.8 °F /  13.2 °C 38.9 °F /  3.8 °C 30.12in /  1019.9hPa West 11.0mph /  17.7km/h 12.0mph /  19.3km/h 53% 0.00in /  0mm
13:42 55.4 °F /  13 °C 38.6 °F /  3.7 °C 30.13in /  1020.2hPa WNW 7.0mph /  11.3km/h 19.0mph /  30.6km/h 53% 0.00in /  0mm
13:47 55.6 °F /  13.1 °C 38.8 °F /  3.8 °C 30.13in /  1020.2hPa West 14.0mph /  22.5km/h 14.0mph /  22.5km/h 53% 0.00in /  0mm
13:52 55.6 °F /  13.1 °C 38.3 °F /  3.5 °C 30.13in /  1020.2hPa WNW 5.0mph /  8km/h 14.0mph /  22.5km/h 52% 0.00in /  0mm
13:57 55.5 °F /  13.1 °C 37.2 °F /  2.9 °C 30.14in /  1020.5hPa WNW 10.0mph /  16.1km/h 18.0mph /  29km/h 50% 0.00in /  0mm
14:02 55.3 °F /  12.9 °C 38.0 °F /  3.3 °C 30.14in /  1020.5hPa WNW 9.0mph /  14.5km/h 13.0mph /  20.9km/h 52% 0.00in /  0mm
14:08 55.3 °F /  12.9 °C 38.5 °F /  3.6 °C 30.13in /  1020.2hPa WSW 7.0mph /  11.3km/h 13.0mph /  20.9km/h 53% 0.00in /  0mm
14:13 55.4 °F /  13 °C 37.6 °F /  3.1 °C 30.13in /  1020.2hPa NW 5.0mph /  8km/h 13.0mph /  20.9km/h 51% 0.00in /  0mm
14:18 55.5 °F /  13.1 °C 37.7 °F /  3.2 °C 30.13in /  1020.2hPa West 10.0mph /  16.1km/h 18.0mph /  29km/h 51% 0.00in /  0mm
14:23 55.3 °F /  12.9 °C 37.5 °F /  3.1 °C 30.13in /  1020.2hPa NW 4.0mph /  6.4km/h 18.0mph /  29km/h 51% 0.00in /  0mm
14:28 55.4 °F /  13 °C 36.6 °F /  2.6 °C 30.13in /  1020.2hPa WNW 11.0mph /  17.7km/h 14.0mph /  22.5km/h 49% 0.00in /  0mm
14:33 55.5 °F /  13.1 °C 36.7 °F /  2.6 °C 30.13in /  1020.2hPa West 6.0mph /  9.7km/h 13.0mph /  20.9km/h 49% 0.00in /  0mm
14:38 55.8 °F /  13.2 °C 36.9 °F /  2.7 °C 30.13in /  1020.2hPa West 7.0mph /  11.3km/h 10.0mph /  16.1km/h 49% 0.00in /  0mm
14:43 56.2 °F /  13.4 °C 36.3 °F /  2.4 °C 30.14in /  1020.5hPa WNW 13.0mph /  20.9km/h 16.0mph /  25.7km/h 47% 0.00in /  0mm
14:48 56.0 °F /  13.3 °C 36.1 °F /  2.3 °C 30.13in /  1020.2hPa NW 5.0mph /  8km/h 12.0mph /  19.3km/h 47% 0.00in /  0mm
14:53 55.9 °F /  13.3 °C 34.9 °F /  1.6 °C 30.14in /  1020.5hPa WNW 7.0mph /  11.3km/h 16.0mph /  25.7km/h 45% 0.00in /  0mm
14:58 55.7 °F /  13.2 °C 36.3 °F /  2.4 °C 30.14in /  1020.5hPa NW 6.0mph /  9.7km/h 12.0mph /  19.3km/h 48% 0.00in /  0mm
15:03 55.7 °F /  13.2 °C 36.3 °F /  2.4 °C 30.14in /  1020.5hPa WNW 13.0mph /  20.9km/h 13.0mph /  20.9km/h 48% 0.00in /  0mm
15:08 55.7 °F /  13.2 °C 36.8 °F /  2.7 °C 30.14in /  1020.5hPa West 7.0mph /  11.3km/h 11.0mph /  17.7km/h 49% 0.00in /  0mm
15:13 55.9 °F /  13.3 °C 36.5 °F /  2.5 °C 30.14in /  1020.5hPa WNW 5.0mph /  8km/h 10.0mph /  16.1km/h 48% 0.00in /  0mm
15:18 55.7 °F /  13.2 °C 35.8 °F /  2.1 °C 30.15in /  1020.9hPa WNW 8.0mph /  12.9km/h 16.0mph /  25.7km/h 47% 0.00in /  0mm
15:23 55.4 °F /  13 °C 35.5 °F /  1.9 °C 30.15in /  1020.9hPa West 8.0mph /  12.9km/h 15.0mph /  24.1km/h 47% 0.00in /  0mm
15:28 55.4 °F /  13 °C 36.6 °F /  2.6 °C 30.15in /  1020.9hPa WNW 6.0mph /  9.7km/h 12.0mph /  19.3km/h 49% 0.00in /  0mm
15:33 55.5 °F /  13.1 °C 36.2 °F /  2.3 °C 30.16in /  1021.2hPa WNW 14.0mph /  22.5km/h 18.0mph /  29km/h 48% 0.00in /  0mm
15:38 55.4 °F /  13 °C 36.1 °F /  2.3 °C 30.16in /  1021.2hPa West 10.0mph /  16.1km/h 15.0mph /  24.1km/h 48% 0.00in /  0mm
15:43 54.7 °F /  12.6 °C 34.9 °F /  1.6 °C 30.16in /  1021.2hPa WNW 7.0mph /  11.3km/h 17.0mph /  27.4km/h 47% 0.00in /  0mm
15:48 54.7 °F /  12.6 °C 33.8 °F /  1 °C 30.17in /  1021.6hPa NW 10.0mph /  16.1km/h 14.0mph /  22.5km/h 45% 0.00in /  0mm
15:53 54.7 °F /  12.6 °C 32.7 °F /  0.4 °C 30.17in /  1021.6hPa NW 9.0mph /  14.5km/h 19.0mph /  30.6km/h 43% 0.00in /  0mm
15:58 54.7 °F /  12.6 °C 33.2 °F /  0.7 °C 30.17in /  1021.6hPa WNW 8.0mph /  12.9km/h 17.0mph /  27.4km/h 44% 0.00in /  0mm
16:03 54.4 °F /  12.4 °C 34.1 °F /  1.2 °C 30.17in /  1021.6hPa NW 6.0mph /  9.7km/h 14.0mph /  22.5km/h 46% 0.00in /  0mm
16:08 54.1 °F /  12.3 °C 32.1 °F /  0.1 °C 30.18in /  1021.9hPa WNW 15.0mph /  24.1km/h 17.0mph /  27.4km/h 43% 0.00in /  0mm
16:13 54.2 °F /  12.3 °C 32.2 °F /  0.1 °C 30.18in /  1021.9hPa NW 8.0mph /  12.9km/h 13.0mph /  20.9km/h 43% 0.00in /  0mm
16:18 54.2 °F /  12.3 °C 32.2 °F /  0.1 °C 30.18in /  1021.9hPa NW 8.0mph /  12.9km/h 14.0mph /  22.5km/h 43% 0.00in /  0mm
16:23 54.3 °F /  12.4 °C 32.9 °F /  0.5 °C 30.19in /  1022.2hPa NW 9.0mph /  14.5km/h 13.0mph /  20.9km/h 44% 0.00in /  0mm
16:28 54.2 °F /  12.3 °C 32.8 °F /  0.4 °C 30.19in /  1022.2hPa NW 12.0mph /  19.3km/h 12.0mph /  19.3km/h 44% 0.00in /  0mm
16:33 54.1 °F /  12.3 °C 33.2 °F /  0.7 °C 30.19in /  1022.2hPa NW 9.0mph /  14.5km/h 12.0mph /  19.3km/h 45% 0.00in /  0mm
16:39 53.9 °F /  12.2 °C 34.2 °F /  1.2 °C 30.20in /  1022.6hPa NW 13.0mph /  20.9km/h 15.0mph /  24.1km/h 47% 0.00in /  0mm
16:44 53.6 °F /  12 °C 34.4 °F /  1.3 °C 30.20in /  1022.6hPa West 6.0mph /  9.7km/h 16.0mph /  25.7km/h 48% 0.00in /  0mm
16:49 53.4 °F /  11.9 °C 34.2 °F /  1.2 °C 30.20in /  1022.6hPa WNW 12.0mph /  19.3km/h 13.0mph /  20.9km/h 48% 0.00in /  0mm
16:54 53.1 °F /  11.7 °C 34.0 °F /  1.1 °C 30.20in /  1022.6hPa West 13.0mph /  20.9km/h 19.0mph /  30.6km/h 48% 0.00in /  0mm
16:59 52.8 °F /  11.6 °C 33.7 °F /  0.9 °C 30.21in /  1022.9hPa WNW 13.0mph /  20.9km/h 16.0mph /  25.7km/h 48% 0.00in /  0mm
17:04 52.6 °F /  11.4 °C 33.0 °F /  0.6 °C 30.21in /  1022.9hPa WNW 11.0mph /  17.7km/h 14.0mph /  22.5km/h 47% 0.00in /  0mm
17:09 52.4 °F /  11.3 °C 32.2 °F /  0.1 °C 30.21in /  1022.9hPa WNW 11.0mph /  17.7km/h 14.0mph /  22.5km/h 46% 0.00in /  0mm
17:14 52.3 °F /  11.3 °C 32.2 °F /  0.1 °C 30.21in /  1022.9hPa WNW 7.0mph /  11.3km/h 14.0mph /  22.5km/h 46% 0.00in /  0mm
17:19 52.2 °F /  11.2 °C 32.6 °F /  0.3 °C 30.22in /  1023.2hPa NW 9.0mph /  14.5km/h 14.0mph /  22.5km/h 47% 0.00in /  0mm
17:24 51.9 °F /  11.1 °C 32.3 °F /  0.2 °C 30.22in /  1023.2hPa WNW 9.0mph /  14.5km/h 16.0mph /  25.7km/h 47% 0.00in /  0mm
17:29 51.7 °F /  10.9 °C 32.7 °F /  0.4 °C 30.22in /  1023.2hPa NW 9.0mph /  14.5km/h 17.0mph /  27.4km/h 48% 0.00in /  0mm
17:34 51.3 °F /  10.7 °C 32.3 °F /  0.2 °C 30.22in /  1023.2hPa West 10.0mph /  16.1km/h 14.0mph /  22.5km/h 48% 0.00in /  0mm
17:39 50.9 °F /  10.5 °C 32.4 °F /  0.2 °C 30.22in /  1023.2hPa WNW 5.0mph /  8km/h 10.0mph /  16.1km/h 49% 0.00in /  0mm
17:40 50.8 °F /  10.4 °C 32.3 °F /  0.2 °C 30.22in /  1023.2hPa WNW 3.0mph /  4.8km/h 10.0mph /  16.1km/h 49% 0.00in /  0mm
17:45 50.3 °F /  10.2 °C 32.4 °F /  0.2 °C 30.22in /  1023.2hPa WNW 4.0mph /  6.4km/h 9.0mph /  14.5km/h 50% 0.00in /  0mm
17:50 50.1 °F /  10.1 °C 32.2 °F /  0.1 °C 30.22in /  1023.2hPa WNW 8.0mph /  12.9km/h 11.0mph /  17.7km/h 50% 0.00in /  0mm
17:55 49.8 °F /  9.9 °C 31.9 °F /  -0.1 °C 30.23in /  1023.6hPa WNW 10.0mph /  16.1km/h 10.0mph /  16.1km/h 50% 0.00in /  0mm
18:00 49.5 °F /  9.7 °C 32.1 °F /  0.1 °C 30.23in /  1023.6hPa WNW 6.0mph /  9.7km/h 8.0mph /  12.9km/h 51% 0.00in /  0mm
18:05 49.0 °F /  9.4 °C 32.2 °F /  0.1 °C 30.23in /  1023.6hPa WNW 4.0mph /  6.4km/h 7.0mph /  11.3km/h 52% 0.00in /  0mm
18:10 48.9 °F /  9.4 °C 32.5 °F /  0.3 °C 30.23in /  1023.6hPa West 7.0mph /  11.3km/h 11.0mph /  17.7km/h 53% 0.00in /  0mm
18:15 48.7 °F /  9.3 °C 32.3 °F /  0.2 °C 30.23in /  1023.6hPa WNW 3.0mph /  4.8km/h 6.0mph /  9.7km/h 53% 0.00in /  0mm
18:20 48.2 °F /  9 °C 32.3 °F /  0.2 °C 30.24in /  1023.9hPa WNW 4.0mph /  6.4km/h 7.0mph /  11.3km/h 54% 0.00in /  0mm
18:25 48.0 °F /  8.9 °C 32.6 °F /  0.3 °C 30.24in /  1023.9hPa West 6.0mph /  9.7km/h 7.0mph /  11.3km/h 55% 0.00in /  0mm
18:30 48.1 °F /  8.9 °C 32.3 °F /  0.2 °C 30.25in /  1024.3hPa West 9.0mph /  14.5km/h 11.0mph /  17.7km/h 54% 0.00in /  0mm
18:35 48.1 °F /  8.9 °C 32.3 °F /  0.2 °C 30.25in /  1024.3hPa WNW 6.0mph /  9.7km/h 11.0mph /  17.7km/h 54% 0.00in /  0mm
18:40 48.0 °F /  8.9 °C 32.2 °F /  0.1 °C 30.25in /  1024.3hPa WNW 7.0mph /  11.3km/h 9.0mph /  14.5km/h 54% 0.00in /  0mm
18:45 47.9 °F /  8.8 °C 31.6 °F /  -0.2 °C 30.25in /  1024.3hPa NW 10.0mph /  16.1km/h 10.0mph /  16.1km/h 53% 0.00in /  0mm
18:46 47.8 °F /  8.8 °C 31.5 °F /  -0.3 °C 30.25in /  1024.3hPa West 7.0mph /  11.3km/h 10.0mph /  16.1km/h 53% 0.00in /  0mm
18:51 47.7 °F /  8.7 °C 31.4 °F /  -0.3 °C 30.26in /  1024.6hPa WNW 6.0mph /  9.7km/h 10.0mph /  16.1km/h 53% 0.00in /  0mm
18:56 47.7 °F /  8.7 °C 31.4 °F /  -0.3 °C 30.26in /  1024.6hPa WNW 6.0mph /  9.7km/h 10.0mph /  16.1km/h 53% 0.00in /  0mm
19:01 47.7 °F /  8.7 °C 31.4 °F /  -0.3 °C 30.26in /  1024.6hPa WNW 7.0mph /  11.3km/h 8.0mph /  12.9km/h 53% 0.00in /  0mm
19:06 47.5 °F /  8.6 °C 31.7 °F /  -0.2 °C 30.26in /  1024.6hPa WNW 5.0mph /  8km/h 9.0mph /  14.5km/h 54% 0.00in /  0mm
19:11 47.4 °F /  8.6 °C 31.6 °F /  -0.2 °C 30.26in /  1024.6hPa WNW 8.0mph /  12.9km/h 10.0mph /  16.1km/h 54% 0.00in /  0mm
19:16 47.1 °F /  8.4 °C 31.3 °F /  -0.4 °C 30.26in /  1024.6hPa WNW 6.0mph /  9.7km/h 10.0mph /  16.1km/h 54% 0.00in /  0mm
19:21 47.0 °F /  8.3 °C 31.2 °F /  -0.4 °C 30.26in /  1024.6hPa WNW 6.0mph /  9.7km/h 9.0mph /  14.5km/h 54% 0.00in /  0mm
19:26 46.8 °F /  8.2 °C 31.0 °F /  -0.6 °C 30.27in /  1024.9hPa WNW 4.0mph /  6.4km/h 9.0mph /  14.5km/h 54% 0.00in /  0mm
19:31 46.7 °F /  8.2 °C 31.0 °F /  -0.6 °C 30.27in /  1024.9hPa NW 4.0mph /  6.4km/h 11.0mph /  17.7km/h 54% 0.00in /  0mm
19:36 46.5 °F /  8.1 °C 30.8 °F /  -0.7 °C 30.27in /  1024.9hPa WNW 6.0mph /  9.7km/h 9.0mph /  14.5km/h 54% 0.00in /  0mm
19:41 46.4 °F /  8 °C 31.1 °F /  -0.5 °C 30.27in /  1024.9hPa NW 3.0mph /  4.8km/h 8.0mph /  12.9km/h 55% 0.00in /  0mm
19:46 46.1 °F /  7.8 °C 30.9 °F /  -0.6 °C 30.27in /  1024.9hPa NW 4.0mph /  6.4km/h 10.0mph /  16.1km/h 55% 0.00in /  0mm
19:51 46.1 °F /  7.8 °C 30.9 °F /  -0.6 °C 30.27in /  1024.9hPa WNW 8.0mph /  12.9km/h 10.0mph /  16.1km/h 55% 0.00in /  0mm
19:56 46.1 °F /  7.8 °C 30.4 °F /  -0.9 °C 30.27in /  1024.9hPa WNW 7.0mph /  11.3km/h 11.0mph /  17.7km/h 54% 0.00in /  0mm
20:01 46.0 °F /  7.8 °C 30.3 °F /  -0.9 °C 30.27in /  1024.9hPa WNW 3.0mph /  4.8km/h 8.0mph /  12.9km/h 54% 0.00in /  0mm
20:06 45.9 °F /  7.7 °C 30.2 °F /  -1 °C 30.27in /  1024.9hPa WNW 9.0mph /  14.5km/h 11.0mph /  17.7km/h 54% 0.00in /  0mm
20:11 45.7 °F /  7.6 °C 30.0 °F /  -1.1 °C 30.28in /  1025.3hPa WNW 4.0mph /  6.4km/h 8.0mph /  12.9km/h 54% 0.00in /  0mm
20:16 45.5 °F /  7.5 °C 30.3 °F /  -0.9 °C 30.28in /  1025.3hPa WNW 4.0mph /  6.4km/h 6.0mph /  9.7km/h 55% 0.00in /  0mm
20:21 45.1 °F /  7.3 °C 30.4 °F /  -0.9 °C 30.28in /  1025.3hPa WNW 3.0mph /  4.8km/h 5.0mph /  8km/h 56% 0.00in /  0mm
20:26 44.8 °F /  7.1 °C 30.1 °F /  -1.1 °C 30.28in /  1025.3hPa West 5.0mph /  8km/h 5.0mph /  8km/h 56% 0.00in /  0mm
20:31 44.6 °F /  7 °C 30.3 °F /  -0.9 °C 30.29in /  1025.6hPa WNW 2.0mph /  3.2km/h 4.0mph /  6.4km/h 57% 0.00in /  0mm
20:37 44.3 °F /  6.8 °C 30.0 °F /  -1.1 °C 30.28in /  1025.3hPa West 4.0mph /  6.4km/h 4.0mph /  6.4km/h 57% 0.00in /  0mm
20:42 44.0 °F /  6.7 °C 30.2 °F /  -1 °C 30.29in /  1025.6hPa WNW 2.0mph /  3.2km/h 4.0mph /  6.4km/h 58% 0.00in /  0mm
20:47 43.9 °F /  6.6 °C 30.1 °F /  -1.1 °C 30.29in /  1025.6hPa WNW 4.0mph /  6.4km/h 5.0mph /  8km/h 58% 0.00in /  0mm
20:52 43.8 °F /  6.6 °C 30.0 °F /  -1.1 °C 30.29in /  1025.6hPa WNW 3.0mph /  4.8km/h 6.0mph /  9.7km/h 58% 0.00in /  0mm
20:57 43.7 °F /  6.5 °C 29.9 °F /  -1.2 °C 30.29in /  1025.6hPa WNW 3.0mph /  4.8km/h 5.0mph /  8km/h 58% 0.00in /  0mm
21:02 43.5 °F /  6.4 °C 30.1 °F /  -1.1 °C 30.29in /  1025.6hPa West 2.0mph /  3.2km/h 4.0mph /  6.4km/h 59% 0.00in /  0mm
21:07 43.1 °F /  6.2 °C 29.8 °F /  -1.2 °C 30.30in /  1026hPa WNW 2.0mph /  3.2km/h 4.0mph /  6.4km/h 59% 0.00in /  0mm
21:12 43.1 °F /  6.2 °C 29.8 °F /  -1.2 °C 30.30in /  1026hPa WNW 2.0mph /  3.2km/h 4.0mph /  6.4km/h 59% 0.00in /  0mm
21:17 42.8 °F /  6 °C 29.5 °F /  -1.4 °C 30.29in /  1025.6hPa NW 4.0mph /  6.4km/h 5.0mph /  8km/h 59% 0.00in /  0mm
21:22 42.9 °F /  6.1 °C 29.2 °F /  -1.6 °C 30.29in /  1025.6hPa WNW 4.0mph /  6.4km/h 5.0mph /  8km/h 58% 0.00in /  0mm
21:27 42.9 °F /  6.1 °C 29.2 °F /  -1.6 °C 30.29in /  1025.6hPa West 2.0mph /  3.2km/h 5.0mph /  8km/h 58% 0.00in /  0mm
21:32 42.9 °F /  6.1 °C 29.2 °F /  -1.6 °C 30.29in /  1025.6hPa West 4.0mph /  6.4km/h 6.0mph /  9.7km/h 58% 0.00in /  0mm
21:37 42.8 °F /  6 °C 29.1 °F /  -1.6 °C 30.29in /  1025.6hPa West 3.0mph /  4.8km/h 7.0mph /  11.3km/h 58% 0.00in /  0mm
21:42 42.7 °F /  5.9 °C 29.0 °F /  -1.7 °C 30.30in /  1026hPa WNW 2.0mph /  3.2km/h 6.0mph /  9.7km/h 58% 0.00in /  0mm
21:47 42.5 °F /  5.8 °C 28.8 °F /  -1.8 °C 30.30in /  1026hPa WNW 5.0mph /  8km/h 5.0mph /  8km/h 58% 0.00in /  0mm
21:52 42.4 °F /  5.8 °C 28.7 °F /  -1.8 °C 30.30in /  1026hPa West 2.0mph /  3.2km/h 6.0mph /  9.7km/h 58% 0.00in /  0mm
21:57 42.2 °F /  5.7 °C 28.5 °F /  -1.9 °C 30.30in /  1026hPa West 2.0mph /  3.2km/h 4.0mph /  6.4km/h 58% 0.00in /  0mm
22:02 42.1 °F /  5.6 °C 28.4 °F /  -2 °C 30.30in /  1026hPa WNW 2.0mph /  3.2km/h 4.0mph /  6.4km/h 58% 0.00in /  0mm
22:07 41.9 °F /  5.5 °C 28.2 °F /  -2.1 °C 30.30in /  1026hPa WNW 1.0mph /  1.6km/h 3.0mph /  4.8km/h 58% 0.00in /  0mm
22:12 41.7 °F /  5.4 °C 28.0 °F /  -2.2 °C 30.30in /  1026hPa West 2.0mph /  3.2km/h 3.0mph /  4.8km/h 58% 0.00in /  0mm
22:17 41.5 °F /  5.3 °C 28.3 °F /  -2.1 °C 30.30in /  1026hPa West 1.0mph /  1.6km/h 3.0mph /  4.8km/h 59% 0.00in /  0mm
22:22 41.4 °F /  5.2 °C 27.8 °F /  -2.3 °C 30.30in /  1026hPa West 2.0mph /  3.2km/h 3.0mph /  4.8km/h 58% 0.00in /  0mm
22:27 41.4 °F /  5.2 °C 27.8 °F /  -2.3 °C 30.30in /  1026hPa West 1.0mph /  1.6km/h 4.0mph /  6.4km/h 58% 0.00in /  0mm
22:32 41.4 °F /  5.2 °C 27.3 °F /  -2.6 °C 30.30in /  1026hPa WNW 2.0mph /  3.2km/h 8.0mph /  12.9km/h 57% 0.00in /  0mm
22:37 41.6 °F /  5.3 °C 27.1 °F /  -2.7 °C 30.30in /  1026hPa WNW 7.0mph /  11.3km/h 8.0mph /  12.9km/h 56% 0.00in /  0mm
22:42 41.7 °F /  5.4 °C 26.3 °F /  -3.2 °C 30.30in /  1026hPa WNW 4.0mph /  6.4km/h 7.0mph /  11.3km/h 54% 0.00in /  0mm
22:47 42.0 °F /  5.6 °C 25.7 °F /  -3.5 °C 30.30in /  1026hPa WNW 5.0mph /  8km/h 11.0mph /  17.7km/h 52% 0.00in /  0mm
22:52 42.2 °F /  5.7 °C 24.9 °F /  -3.9 °C 30.31in /  1026.3hPa WNW 4.0mph /  6.4km/h 12.0mph /  19.3km/h 50% 0.00in /  0mm
22:57 42.3 °F /  5.7 °C 24.5 °F /  -4.2 °C 30.31in /  1026.3hPa WNW 6.0mph /  9.7km/h 13.0mph /  20.9km/h 49% 0.00in /  0mm
23:02 42.5 °F /  5.8 °C 24.2 °F /  -4.3 °C 30.31in /  1026.3hPa WNW 9.0mph /  14.5km/h 11.0mph /  17.7km/h 48% 0.00in /  0mm
23:07 42.4 °F /  5.8 °C 23.6 °F /  -4.7 °C 30.32in /  1026.6hPa WNW 6.0mph /  9.7km/h 11.0mph /  17.7km/h 47% 0.00in /  0mm
23:12 42.3 °F /  5.7 °C 23.5 °F /  -4.7 °C 30.32in /  1026.6hPa WNW 9.0mph /  14.5km/h 9.0mph /  14.5km/h 47% 0.00in /  0mm
23:18 42.0 °F /  5.6 °C 23.2 °F /  -4.9 °C 30.32in /  1026.6hPa WNW 6.0mph /  9.7km/h 8.0mph /  12.9km/h 47% 0.00in /  0mm
23:23 41.9 °F /  5.5 °C 23.2 °F /  -4.9 °C 30.32in /  1026.6hPa NW 4.0mph /  6.4km/h 12.0mph /  19.3km/h 47% 0.00in /  0mm
23:28 41.8 °F /  5.4 °C 22.5 °F /  -5.3 °C 30.32in /  1026.6hPa WNW 10.0mph /  16.1km/h 13.0mph /  20.9km/h 46% 0.00in /  0mm
23:33 41.7 °F /  5.4 °C 21.4 °F /  -5.9 °C 30.32in /  1026.6hPa NW 11.0mph /  17.7km/h 13.0mph /  20.9km/h 44% 0.00in /  0mm
23:38 41.8 °F /  5.4 °C 21.5 °F /  -5.8 °C 30.32in /  1026.6hPa NW 8.0mph /  12.9km/h 12.0mph /  19.3km/h 44% 0.00in /  0mm
23:43 41.6 °F /  5.3 °C 21.3 °F /  -5.9 °C 30.32in /  1026.6hPa WNW 11.0mph /  17.7km/h 16.0mph /  25.7km/h 44% 0.00in /  0mm
23:48 41.7 °F /  5.4 °C 20.9 °F /  -6.2 °C 30.32in /  1026.6hPa NW 6.0mph /  9.7km/h 15.0mph /  24.1km/h 43% 0.00in /  0mm
23:53 41.4 °F /  5.2 °C 21.1 °F /  -6.1 °C 30.32in /  1026.6hPa WNW 7.0mph /  11.3km/h 12.0mph /  19.3km/h 44% 0.00in /  0mm
23:58 41.1 °F /  5.1 °C 20.9 °F /  -6.2 °C 30.32in /  1026.6hPa WNW 4.0mph /  6.4km/h 11.0mph /  17.7km/h 44% 0.00in /  0mm
Compliments of Weather Underground